Emerald Isle, NC

8:50 PM EDT on August 28, 2016 (GMT -0400)
Oceanfront | | Change Station
Active Advisory: Beach Hazard Statement

Elev 7 ft 34.67 °N, 76.98 °W | Updated 4 minutes ago

Clear
Clear
79.9 °F
Feels Like 85 °F
N
8.0
Wind Variable Wind from ENE

Today
High -- | Low -- °F
--% Chance of Precip.
Yesterday
High -- | Low -- °F
Precip. -- in
Pressure 30.09 in
Visibility 10.0 miles
Clouds Clear
Heat Index 85 °F
Dew Point 77 °F
Humidity 90%
Rainfall 0.00 in
Snow Depth Not available.
6:38 AM 7:38 PM
Waning Crescent, 12% visible
METAR KNJM 282357Z AUTO 01006KT 10SM CLR 27/24 A3008 RMK AO2 SLP190 60001 T02720244 10306 20272 55003
Pressure 30.09 in
Visibility 10.0 miles
Clouds Clear
Heat Index 85 °F
Dew Point 77 °F
Humidity 90%
Rainfall 0.00 in
Snow Depth Not available.
6:38 AM 7:38 PM
Waning Crescent, 12% visible
METAR KNJM 282357Z AUTO 01006KT 10SM CLR 27/24 A3008 RMK AO2 SLP190 60001 T02720244 10306 20272 55003

10-Day Weather Forecast

Almanac

Astronomy

Aug. 28, 2016 Rise Set
Actual Time
Civil Twilight
Nautical Twilight
Astronomical Twilight
Moon
Length of Visible Light
Length of Day
Tomorrow will be .
, % of the Moon is Illuminated

Today's Extremes

State Highs State Lows

Community

WunderPhotos

Upload Photos

1,935,749 photos uploaded!

WunderBlog® & News

Nearby

Air Quality

  Air Quality AQ Index Pollutant
Not available.

Snow Depth

Station Depth Elevation

Earthquake Activity

City Distance Mag. Time & Date
Minimum magnitude displayed is 2.5.

Coastal Water Temperatures

Place Temperature

Stations

Nearby Weather Stations

Station Location Temp. Windchill Dew Point Humidity Wind Precip. Elev Updated Type
                   

Watches & Warnings

Beach Hazard Statement
Issued: 4:27 PM EDT Aug. 28, 2016 – National Weather Service

... Beach hazards statement in effect from 8 PM EDT this evening
through Monday evening...

The National Weather Service in Newport/Morehead City has issued
a beach hazards statement... which is in effect from 8 PM EDT this
evening through Monday evening.

* Hazards... high threat of rip currents

* location... beaches from Surf City to Duck

* timing and tides... the best chance for strong rip currents will
be a few hours either side of low tide... which occurs between
1130 am and noon Monday afternoon. However... significant long
period swells will make conditions dangerous during at all
times.

Swim near a lifeguard. If caught in a rip current remain calm.
Don't fight the current. Swim in a direction following the
shoreline. When out of the current, swim back to shore. If tired,
float or tread water until out of the rip current. If unable to
escape, face the shore and call or wave for help.
Precautionary/preparedness actions...